sensor_id;sensor_type;location;lat;lon;timestamp;pressure;altitude;pressure_sealevel;temperature;humidity
80308;BME280;69616;43.522;1.348;2023-12-20T00:01:35;101079.97;;;6.55;79.20
80308;BME280;69616;43.522;1.348;2023-12-20T00:04:00;101069.50;;;6.55;79.48
80308;BME280;69616;43.522;1.348;2023-12-20T00:06:26;101058.16;;;6.55;78.96
80308;BME280;69616;43.522;1.348;2023-12-20T00:08:51;101053.78;;;6.55;79.44
80308;BME280;69616;43.522;1.348;2023-12-20T00:11:17;101052.94;;;6.55;78.99
80308;BME280;69616;43.522;1.348;2023-12-20T00:13:42;101054.63;;;6.54;79.80
80308;BME280;69616;43.522;1.348;2023-12-20T00:16:07;101055.56;;;6.56;79.47
80308;BME280;69616;43.522;1.348;2023-12-20T00:18:33;101045.16;;;6.58;79.71
80308;BME280;69616;43.522;1.348;2023-12-20T00:20:58;101046.00;;;6.58;79.64
80308;BME280;69616;43.522;1.348;2023-12-20T00:23:23;101048.63;;;6.58;79.46
80308;BME280;69616;43.522;1.348;2023-12-20T00:25:49;101039.97;;;6.61;79.30
80308;BME280;69616;43.522;1.348;2023-12-20T00:28:14;101026.91;;;6.63;79.63
80308;BME280;69616;43.522;1.348;2023-12-20T00:30:40;101021.69;;;6.63;78.91
80308;BME280;69616;43.522;1.348;2023-12-20T00:33:05;101019.91;;;6.61;79.37
80308;BME280;69616;43.522;1.348;2023-12-20T00:35:31;101018.16;;;6.60;79.09
80308;BME280;69616;43.522;1.348;2023-12-20T00:37:56;101016.44;;;6.63;79.71
80308;BME280;69616;43.522;1.348;2023-12-20T00:40:21;101009.44;;;6.61;79.81
80308;BME280;69616;43.522;1.348;2023-12-20T00:42:47;101019.13;;;6.64;79.51
80308;BME280;69616;43.522;1.348;2023-12-20T00:45:13;101006.94;;;6.65;79.42
80308;BME280;69616;43.522;1.348;2023-12-20T00:47:39;101007.84;;;6.67;79.54
80308;BME280;69616;43.522;1.348;2023-12-20T00:50:05;100995.69;;;6.69;79.00
80308;BME280;69616;43.522;1.348;2023-12-20T00:52:31;100984.31;;;6.68;79.59
80308;BME280;69616;43.522;1.348;2023-12-20T00:54:56;100986.09;;;6.69;79.61
80308;BME280;69616;43.522;1.348;2023-12-20T00:57:22;100974.75;;;6.69;79.06
80308;BME280;69616;43.522;1.348;2023-12-20T00:59:47;100981.75;;;6.70;79.08
80308;BME280;69616;43.522;1.348;2023-12-20T01:02:12;100976.56;;;6.73;79.07
80308;BME280;69616;43.522;1.348;2023-12-20T01:04:38;100984.44;;;6.73;79.76
80308;BME280;69616;43.522;1.348;2023-12-20T01:07:03;100983.59;;;6.74;79.29
80308;BME280;69616;43.522;1.348;2023-12-20T01:09:29;100980.13;;;6.75;78.99
80308;BME280;69616;43.522;1.348;2023-12-20T01:11:54;100973.16;;;6.75;79.34
80308;BME280;69616;43.522;1.348;2023-12-20T01:14:20;100971.41;;;6.76;78.96
80308;BME280;69616;43.522;1.348;2023-12-20T01:16:45;100968.84;;;6.78;79.27
80308;BME280;69616;43.522;1.348;2023-12-20T01:19:11;100971.47;;;6.79;79.72
80308;BME280;69616;43.522;1.348;2023-12-20T01:21:36;100969.72;;;6.78;79.60
80308;BME280;69616;43.522;1.348;2023-12-20T01:24:02;100955.69;;;6.76;79.85
80308;BME280;69616;43.522;1.348;2023-12-20T01:26:27;100962.72;;;6.77;79.06
80308;BME280;69616;43.522;1.348;2023-12-20T01:28:53;100959.25;;;6.78;79.27
80308;BME280;69616;43.522;1.348;2023-12-20T01:31:18;100956.66;;;6.80;79.45
80308;BME280;69616;43.522;1.348;2023-12-20T01:33:44;100959.31;;;6.81;79.81
80308;BME280;69616;43.522;1.348;2023-12-20T01:36:09;100959.31;;;6.81;79.48
80308;BME280;69616;43.522;1.348;2023-12-20T01:38:34;100954.06;;;6.81;79.28
80308;BME280;69616;43.522;1.348;2023-12-20T01:41:00;100954.97;;;6.82;79.08
80308;BME280;69616;43.522;1.348;2023-12-20T01:43:25;100951.50;;;6.83;79.22
80308;BME280;69616;43.522;1.348;2023-12-20T01:45:51;100947.13;;;6.83;79.71
80308;BME280;69616;43.522;1.348;2023-12-20T01:48:18;100941.91;;;6.83;79.34
80308;BME280;69616;43.522;1.348;2023-12-20T01:50:45;100941.94;;;6.85;79.29
80308;BME280;69616;43.522;1.348;2023-12-20T01:53:12;100936.66;;;6.83;79.29
80308;BME280;69616;43.522;1.348;2023-12-20T01:55:39;100939.31;;;6.85;79.41
80308;BME280;69616;43.522;1.348;2023-12-20T01:58:09;100931.41;;;6.83;79.71
80308;BME280;69616;43.522;1.348;2023-12-20T02:00:36;100939.28;;;6.83;79.18
80308;BME280;69616;43.522;1.348;2023-12-20T02:03:02;100921.84;;;6.84;79.53
80308;BME280;69616;43.522;1.348;2023-12-20T02:05:29;100926.25;;;6.86;79.55
80308;BME280;69616;43.522;1.348;2023-12-20T02:07:55;100919.25;;;6.85;80.10
80308;BME280;69616;43.522;1.348;2023-12-20T02:10:20;100918.38;;;6.85;79.92
80308;BME280;69616;43.522;1.348;2023-12-20T02:12:46;100915.78;;;6.86;79.77
80308;BME280;69616;43.522;1.348;2023-12-20T02:15:11;100907.06;;;6.86;80.01
80308;BME280;69616;43.522;1.348;2023-12-20T02:17:38;100901.88;;;6.87;79.44
80308;BME280;69616;43.522;1.348;2023-12-20T02:20:05;100896.63;;;6.87;79.47
80308;BME280;69616;43.522;1.348;2023-12-20T02:22:31;100900.97;;;6.87;79.70
80308;BME280;69616;43.522;1.348;2023-12-20T02:24:56;100890.53;;;6.88;79.57
80308;BME280;69616;43.522;1.348;2023-12-20T02:27:23;100887.94;;;6.88;79.30
80308;BME280;69616;43.522;1.348;2023-12-20T02:29:49;100877.44;;;6.88;79.44
80308;BME280;69616;43.522;1.348;2023-12-20T02:32:16;100879.22;;;6.89;79.39
80308;BME280;69616;43.522;1.348;2023-12-20T02:34:41;100883.59;;;6.91;79.58
80308;BME280;69616;43.522;1.348;2023-12-20T02:37:07;100877.50;;;6.92;79.66
80308;BME280;69616;43.522;1.348;2023-12-20T02:39:32;100876.63;;;6.91;80.11
80308;BME280;69616;43.522;1.348;2023-12-20T02:41:58;100877.50;;;6.92;80.16
80308;BME280;69616;43.522;1.348;2023-12-20T02:44:24;100867.03;;;6.92;79.47
80308;BME280;69616;43.522;1.348;2023-12-20T02:46:50;100869.66;;;6.93;79.83
80308;BME280;69616;43.522;1.348;2023-12-20T02:49:15;100869.66;;;6.93;79.79
80308;BME280;69616;43.522;1.348;2023-12-20T02:51:40;100861.81;;;6.93;79.73
80308;BME280;69616;43.522;1.348;2023-12-20T02:54:06;100862.72;;;6.94;79.34
80308;BME280;69616;43.522;1.348;2023-12-20T02:56:34;100854.84;;;6.94;80.13
80308;BME280;69616;43.522;1.348;2023-12-20T02:59:00;100845.25;;;6.94;79.83
80308;BME280;69616;43.522;1.348;2023-12-20T03:01:27;100846.09;;;6.93;79.85
80308;BME280;69616;43.522;1.348;2023-12-20T03:03:52;100843.50;;;6.93;80.63
80308;BME280;69616;43.522;1.348;2023-12-20T03:06:18;100840.84;;;6.92;80.59
80308;BME280;69616;43.522;1.348;2023-12-20T03:08:44;100845.25;;;6.93;80.07
80308;BME280;69616;43.522;1.348;2023-12-20T03:11:10;100837.38;;;6.93;79.95
80308;BME280;69616;43.522;1.348;2023-12-20T03:13:35;100825.16;;;6.92;80.45
80308;BME280;69616;43.522;1.348;2023-12-20T03:16:01;100825.16;;;6.92;80.02
80308;BME280;69616;43.522;1.348;2023-12-20T03:18:26;100819.06;;;6.93;80.51
80308;BME280;69616;43.522;1.348;2023-12-20T03:20:53;100830.38;;;6.92;80.40
80308;BME280;69616;43.522;1.348;2023-12-20T03:23:19;100826.91;;;6.93;80.90
80308;BME280;69616;43.522;1.348;2023-12-20T03:25:44;100831.25;;;6.92;80.36
80308;BME280;69616;43.522;1.348;2023-12-20T03:28:09;100828.69;;;6.94;80.56
80308;BME280;69616;43.522;1.348;2023-12-20T03:30:35;100821.69;;;6.93;80.81
80308;BME280;69616;43.522;1.348;2023-12-20T03:33:00;100826.88;;;6.91;80.68
80308;BME280;69616;43.522;1.348;2023-12-20T03:35:25;100813.78;;;6.91;80.85
80308;BME280;69616;43.522;1.348;2023-12-20T03:37:51;100814.69;;;6.92;80.73
80308;BME280;69616;43.522;1.348;2023-12-20T03:40:16;100812.91;;;6.91;81.39
80308;BME280;69616;43.522;1.348;2023-12-20T03:42:42;100819.00;;;6.91;81.22
80308;BME280;69616;43.522;1.348;2023-12-20T03:45:08;100819.00;;;6.89;81.73
80308;BME280;69616;43.522;1.348;2023-12-20T03:47:33;100823.34;;;6.89;82.05
80308;BME280;69616;43.522;1.348;2023-12-20T03:49:58;100818.09;;;6.89;81.94
80308;BME280;69616;43.522;1.348;2023-12-20T03:52:24;100813.75;;;6.89;81.27
80308;BME280;69616;43.522;1.348;2023-12-20T03:54:49;100812.91;;;6.91;82.16
80308;BME280;69616;43.522;1.348;2023-12-20T03:57:15;100808.47;;;6.88;81.71
80308;BME280;69616;43.522;1.348;2023-12-20T03:59:40;100811.16;;;6.89;82.08
80308;BME280;69616;43.522;1.348;2023-12-20T04:02:06;100803.28;;;6.89;81.85
80308;BME280;69616;43.522;1.348;2023-12-20T04:04:31;100795.44;;;6.89;81.43
80308;BME280;69616;43.522;1.348;2023-12-20T04:06:56;100786.72;;;6.91;81.96
80308;BME280;69616;43.522;1.348;2023-12-20T04:09:22;100788.50;;;6.92;82.35
80308;BME280;69616;43.522;1.348;2023-12-20T04:11:47;100785.88;;;6.92;82.75
80308;BME280;69616;43.522;1.348;2023-12-20T04:14:13;100791.13;;;6.93;82.44
80308;BME280;69616;43.522;1.348;2023-12-20T04:16:38;100788.53;;;6.95;82.44
80308;BME280;69616;43.522;1.348;2023-12-20T04:19:04;100785.06;;;6.96;83.33
80308;BME280;69616;43.522;1.348;2023-12-20T04:21:30;100778.13;;;6.98;83.01
80308;BME280;69616;43.522;1.348;2023-12-20T04:23:56;100780.78;;;6.99;82.89
80308;BME280;69616;43.522;1.348;2023-12-20T04:26:21;100772.94;;;7.01;83.16
80308;BME280;69616;43.522;1.348;2023-12-20T04:28:46;100772.13;;;7.03;83.49
80308;BME280;69616;43.522;1.348;2023-12-20T04:31:12;100780.91;;;7.07;83.38
80308;BME280;69616;43.522;1.348;2023-12-20T04:33:37;100776.56;;;7.09;83.53
80308;BME280;69616;43.522;1.348;2023-12-20T04:36:03;100778.34;;;7.10;84.06
80308;BME280;69616;43.522;1.348;2023-12-20T04:38:29;100777.47;;;7.11;83.83
80308;BME280;69616;43.522;1.348;2023-12-20T04:40:55;100773.19;;;7.13;83.80
80308;BME280;69616;43.522;1.348;2023-12-20T04:43:20;100778.47;;;7.16;84.46
80308;BME280;69616;43.522;1.348;2023-12-20T04:45:45;100769.75;;;7.17;84.22
80308;BME280;69616;43.522;1.348;2023-12-20T04:48:11;100771.53;;;7.18;84.31
80308;BME280;69616;43.522;1.348;2023-12-20T04:50:37;100774.16;;;7.20;84.29
80308;BME280;69616;43.522;1.348;2023-12-20T04:53:02;100769.81;;;7.22;84.52
80308;BME280;69616;43.522;1.348;2023-12-20T04:55:28;100766.38;;;7.25;84.53
80308;BME280;69616;43.522;1.348;2023-12-20T04:57:53;100762.06;;;7.27;84.54
80308;BME280;69616;43.522;1.348;2023-12-20T05:00:19;100759.44;;;7.27;84.46
80308;BME280;69616;43.522;1.348;2023-12-20T05:02:45;100757.72;;;7.29;84.80
80308;BME280;69616;43.522;1.348;2023-12-20T05:05:10;100757.78;;;7.32;85.09
80308;BME280;69616;43.522;1.348;2023-12-20T05:07:36;100751.69;;;7.33;85.05
80308;BME280;69616;43.522;1.348;2023-12-20T05:10:02;100755.19;;;7.35;85.62
80308;BME280;69616;43.522;1.348;2023-12-20T05:12:29;100752.66;;;7.38;85.46
80308;BME280;69616;43.522;1.348;2023-12-20T05:14:55;100754.44;;;7.39;85.57
80308;BME280;69616;43.522;1.348;2023-12-20T05:17:20;100762.34;;;7.42;85.97
80308;BME280;69616;43.522;1.348;2023-12-20T05:19:46;100764.09;;;7.43;85.92
80308;BME280;69616;43.522;1.348;2023-12-20T05:22:11;100763.25;;;7.44;85.23
80308;BME280;69616;43.522;1.348;2023-12-20T05:24:36;100764.19;;;7.48;85.54
80308;BME280;69616;43.522;1.348;2023-12-20T05:27:02;100768.63;;;7.52;85.55
80308;BME280;69616;43.522;1.348;2023-12-20T05:29:27;100763.38;;;7.54;85.62
80308;BME280;69616;43.522;1.348;2023-12-20T05:31:53;100763.44;;;7.57;85.91
80308;BME280;69616;43.522;1.348;2023-12-20T05:34:19;100760.88;;;7.60;86.44
80308;BME280;69616;43.522;1.348;2023-12-20T05:36:45;100766.19;;;7.65;87.24
80308;BME280;69616;43.522;1.348;2023-12-20T05:39:10;100767.13;;;7.70;86.87
80308;BME280;69616;43.522;1.348;2023-12-20T05:41:36;100768.97;;;7.75;87.06
80308;BME280;69616;43.522;1.348;2023-12-20T05:44:01;100769.09;;;7.83;87.73
80308;BME280;69616;43.522;1.348;2023-12-20T05:46:27;100771.75;;;7.86;87.53
80308;BME280;69616;43.522;1.348;2023-12-20T05:48:52;100775.31;;;7.92;87.80
80308;BME280;69616;43.522;1.348;2023-12-20T05:51:18;100779.78;;;7.96;87.98
80308;BME280;69616;43.522;1.348;2023-12-20T05:53:44;100780.69;;;7.98;88.09
80308;BME280;69616;43.522;1.348;2023-12-20T05:56:10;100783.31;;;7.99;88.19
80308;BME280;69616;43.522;1.348;2023-12-20T05:58:36;100790.38;;;8.03;88.68
80308;BME280;69616;43.522;1.348;2023-12-20T06:01:05;100790.41;;;8.05;88.61
80308;BME280;69616;43.522;1.348;2023-12-20T06:03:30;100794.00;;;8.12;89.30
80308;BME280;69616;43.522;1.348;2023-12-20T06:05:56;100795.81;;;8.16;89.35
80308;BME280;69616;43.522;1.348;2023-12-20T06:08:21;100807.19;;;8.18;88.96
80308;BME280;69616;43.522;1.348;2023-12-20T06:10:47;100811.63;;;8.21;89.20
80308;BME280;69616;43.522;1.348;2023-12-20T06:13:12;100812.50;;;8.21;89.57
80308;BME280;69616;43.522;1.348;2023-12-20T06:15:39;100820.41;;;8.23;89.15
80308;BME280;69616;43.522;1.348;2023-12-20T06:18:05;100824.75;;;8.22;89.33
80308;BME280;69616;43.522;1.348;2023-12-20T06:20:30;100828.28;;;8.24;89.41
80308;BME280;69616;43.522;1.348;2023-12-20T06:22:56;100827.41;;;8.25;89.41
80308;BME280;69616;43.522;1.348;2023-12-20T06:25:21;100824.81;;;8.27;89.76
80308;BME280;69616;43.522;1.348;2023-12-20T06:27:46;100837.94;;;8.28;89.72
80308;BME280;69616;43.522;1.348;2023-12-20T06:30:12;100832.75;;;8.31;89.58
80308;BME280;69616;43.522;1.348;2023-12-20T06:32:37;100838.06;;;8.35;89.60
80308;BME280;69616;43.522;1.348;2023-12-20T06:35:05;100842.44;;;8.37;89.94
80308;BME280;69616;43.522;1.348;2023-12-20T06:37:30;100854.72;;;8.37;90.04
80308;BME280;69616;43.522;1.348;2023-12-20T06:39:56;100851.22;;;8.38;90.18
80308;BME280;69616;43.522;1.348;2023-12-20T06:42:23;100857.38;;;8.40;89.94
80308;BME280;69616;43.522;1.348;2023-12-20T06:44:48;100869.63;;;8.41;90.42
80308;BME280;69616;43.522;1.348;2023-12-20T06:47:14;100874.88;;;8.41;89.76
80308;BME280;69616;43.522;1.348;2023-12-20T06:49:40;100875.78;;;8.43;89.95
80308;BME280;69616;43.522;1.348;2023-12-20T06:52:05;100875.78;;;8.43;89.93
80308;BME280;69616;43.522;1.348;2023-12-20T06:54:31;100880.16;;;8.44;90.05
80308;BME280;69616;43.522;1.348;2023-12-20T06:56:56;100883.69;;;8.44;90.22
80308;BME280;69616;43.522;1.348;2023-12-20T06:59:22;100895.09;;;8.48;90.11
80308;BME280;69616;43.522;1.348;2023-12-20T07:01:48;100894.22;;;8.49;90.56
80308;BME280;69616;43.522;1.348;2023-12-20T07:04:14;100905.72;;;8.53;90.47
80308;BME280;69616;43.522;1.348;2023-12-20T07:06:39;100904.84;;;8.54;90.24
80308;BME280;69616;43.522;1.348;2023-12-20T07:09:04;100908.34;;;8.54;90.27
80308;BME280;69616;43.522;1.348;2023-12-20T07:11:30;100908.38;;;8.56;90.19
80308;BME280;69616;43.522;1.348;2023-12-20T07:13:55;100915.34;;;8.55;89.86
80308;BME280;69616;43.522;1.348;2023-12-20T07:16:21;100922.41;;;8.56;90.52
80308;BME280;69616;43.522;1.348;2023-12-20T07:18:47;100939.91;;;8.57;90.55
80308;BME280;69616;43.522;1.348;2023-12-20T07:21:13;100945.16;;;8.57;90.38
80308;BME280;69616;43.522;1.348;2023-12-20T07:23:38;100941.69;;;8.60;90.44
80308;BME280;69616;43.522;1.348;2023-12-20T07:26:03;100948.69;;;8.59;90.18
80308;BME280;69616;43.522;1.348;2023-12-20T07:28:29;100959.19;;;8.59;89.89
80308;BME280;69616;43.522;1.348;2023-12-20T07:30:55;100960.91;;;8.57;90.33
80308;BME280;69616;43.522;1.348;2023-12-20T07:33:20;100962.69;;;8.58;89.97
80308;BME280;69616;43.522;1.348;2023-12-20T07:35:45;100970.50;;;8.57;89.98
80308;BME280;69616;43.522;1.348;2023-12-20T07:38:11;100973.09;;;8.55;89.82
80308;BME280;69616;43.522;1.348;2023-12-20T07:40:37;100982.69;;;8.53;89.86
80308;BME280;69616;43.522;1.348;2023-12-20T07:43:03;100986.22;;;8.54;89.72
80308;BME280;69616;43.522;1.348;2023-12-20T07:45:28;100994.91;;;8.51;89.72
80308;BME280;69616;43.522;1.348;2023-12-20T07:47:54;101007.19;;;8.51;89.46
80308;BME280;69616;43.522;1.348;2023-12-20T07:50:19;101011.44;;;8.47;89.41
80308;BME280;69616;43.522;1.348;2023-12-20T07:52:45;101019.28;;;8.44;89.48
80308;BME280;69616;43.522;1.348;2023-12-20T07:55:10;101022.81;;;8.44;89.40
80308;BME280;69616;43.522;1.348;2023-12-20T07:57:36;101040.28;;;8.44;89.22
80308;BME280;69616;43.522;1.348;2023-12-20T08:00:01;101037.66;;;8.44;89.22
80308;BME280;69616;43.522;1.348;2023-12-20T08:02:28;101040.22;;;8.42;89.07
80308;BME280;69616;43.522;1.348;2023-12-20T08:04:54;101053.34;;;8.41;88.89
80308;BME280;69616;43.522;1.348;2023-12-20T08:07:19;101053.34;;;8.41;88.88
80308;BME280;69616;43.522;1.348;2023-12-20T08:09:45;101063.84;;;8.41;88.83
80308;BME280;69616;43.522;1.348;2023-12-20T08:12:10;101070.81;;;8.39;88.88
80308;BME280;69616;43.522;1.348;2023-12-20T08:14:36;101077.78;;;8.38;88.63
80308;BME280;69616;43.522;1.348;2023-12-20T08:17:02;101083.94;;;8.39;88.81
80308;BME280;69616;43.522;1.348;2023-12-20T08:19:28;101084.78;;;8.38;88.34
80308;BME280;69616;43.522;1.348;2023-12-20T08:21:53;101090.00;;;8.36;88.49
80308;BME280;69616;43.522;1.348;2023-12-20T08:24:18;101087.38;;;8.35;88.49
80308;BME280;69616;43.522;1.348;2023-12-20T08:26:44;101100.41;;;8.31;88.12
80308;BME280;69616;43.522;1.348;2023-12-20T08:29:13;101103.97;;;8.33;88.39
80308;BME280;69616;43.522;1.348;2023-12-20T08:31:38;101109.19;;;8.32;88.20
80308;BME280;69616;43.522;1.348;2023-12-20T08:34:03;101114.41;;;8.32;88.18
80308;BME280;69616;43.522;1.348;2023-12-20T08:36:29;101121.41;;;8.31;88.17
80308;BME280;69616;43.522;1.348;2023-12-20T08:38:54;101129.31;;;8.33;88.27
80308;BME280;69616;43.522;1.348;2023-12-20T08:41:20;101134.56;;;8.33;88.12
80308;BME280;69616;43.522;1.348;2023-12-20T08:43:45;101145.91;;;8.32;87.86
80308;BME280;69616;43.522;1.348;2023-12-20T08:46:11;101149.44;;;8.32;87.92
80308;BME280;69616;43.522;1.348;2023-12-20T08:48:37;101151.16;;;8.32;87.77
80308;BME280;69616;43.522;1.348;2023-12-20T08:51:03;101161.66;;;8.32;87.65
80308;BME280;69616;43.522;1.348;2023-12-20T08:53:29;101164.28;;;8.32;87.51
80308;BME280;69616;43.522;1.348;2023-12-20T08:55:54;101156.47;;;8.33;87.64
80308;BME280;69616;43.522;1.348;2023-12-20T08:58:19;101168.72;;;8.35;87.59
80308;BME280;69616;43.522;1.348;2023-12-20T09:00:45;101179.22;;;8.35;87.51
80308;BME280;69616;43.522;1.348;2023-12-20T09:03:10;101183.66;;;8.39;87.32
80308;BME280;69616;43.522;1.348;2023-12-20T09:05:36;101177.56;;;8.40;87.09
80308;BME280;69616;43.522;1.348;2023-12-20T09:08:01;101186.31;;;8.40;87.15
80308;BME280;69616;43.522;1.348;2023-12-20T09:10:26;101196.00;;;8.43;87.07
80308;BME280;69616;43.522;1.348;2023-12-20T09:12:52;101196.91;;;8.45;86.80
80308;BME280;69616;43.522;1.348;2023-12-20T09:15:26;101202.19;;;8.46;86.85
80308;BME280;69616;43.522;1.348;2023-12-20T09:17:52;101203.97;;;8.49;86.50
80308;BME280;69616;43.522;1.348;2023-12-20T09:20:17;101206.69;;;8.51;86.34
80308;BME280;69616;43.522;1.348;2023-12-20T09:22:43;101213.72;;;8.53;86.77
80308;BME280;69616;43.522;1.348;2023-12-20T09:25:10;101219.97;;;8.58;86.55
80308;BME280;69616;43.522;1.348;2023-12-20T09:27:36;101223.50;;;8.62;86.39
80308;BME280;69616;43.522;1.348;2023-12-20T09:30:02;101234.06;;;8.64;86.35
80308;BME280;69616;43.522;1.348;2023-12-20T09:32:29;101240.22;;;8.66;86.23
80308;BME280;69616;43.522;1.348;2023-12-20T09:34:54;101239.38;;;8.67;86.23
80308;BME280;69616;43.522;1.348;2023-12-20T09:37:20;101246.38;;;8.68;86.01
80308;BME280;69616;43.522;1.348;2023-12-20T09:39:45;101249.88;;;8.67;85.75
80308;BME280;69616;43.522;1.348;2023-12-20T09:42:11;101250.72;;;8.66;85.64
80308;BME280;69616;43.522;1.348;2023-12-20T09:44:41;101255.06;;;8.64;85.28
80308;BME280;69616;43.522;1.348;2023-12-20T09:47:07;101260.31;;;8.64;85.81
80308;BME280;69616;43.522;1.348;2023-12-20T09:49:33;101261.19;;;8.64;85.38
80308;BME280;69616;43.522;1.348;2023-12-20T09:52:00;101258.59;;;8.66;85.32
80308;BME280;69616;43.522;1.348;2023-12-20T09:54:28;101254.22;;;8.65;84.97
80308;BME280;69616;43.522;1.348;2023-12-20T09:56:54;101257.69;;;8.64;84.91
80308;BME280;69616;43.522;1.348;2023-12-20T09:59:19;101253.34;;;8.66;84.70
80308;BME280;69616;43.522;1.348;2023-12-20T10:01:45;101250.75;;;8.67;84.62
80308;BME280;69616;43.522;1.348;2023-12-20T10:04:12;101259.56;;;8.71;84.43
80308;BME280;69616;43.522;1.348;2023-12-20T10:06:42;101266.59;;;8.72;84.51
80308;BME280;69616;43.522;1.348;2023-12-20T10:09:11;101266.66;;;8.75;84.34
80308;BME280;69616;43.522;1.348;2023-12-20T10:11:38;101259.69;;;8.77;84.44
80308;BME280;69616;43.522;1.348;2023-12-20T10:14:04;101262.41;;;8.80;84.39
80308;BME280;69616;43.522;1.348;2023-12-20T10:16:30;101258.13;;;8.85;84.36
80308;BME280;69616;43.522;1.348;2023-12-20T10:18:56;101259.09;;;8.92;84.40
80308;BME280;69616;43.522;1.348;2023-12-20T10:21:25;101260.94;;;8.96;83.89
80308;BME280;69616;43.522;1.348;2023-12-20T10:23:55;101261.06;;;9.02;84.00
80308;BME280;69616;43.522;1.348;2023-12-20T10:26:26;101264.53;;;9.03;83.67
80308;BME280;69616;43.522;1.348;2023-12-20T10:29:00;101266.31;;;9.04;83.40
80308;BME280;69616;43.522;1.348;2023-12-20T10:31:30;101266.34;;;9.05;83.62
80308;BME280;69616;43.522;1.348;2023-12-20T10:33:57;101273.41;;;9.08;83.46
80308;BME280;69616;43.522;1.348;2023-12-20T10:36:25;101269.94;;;9.09;83.35
80308;BME280;69616;43.522;1.348;2023-12-20T10:38:52;101262.06;;;9.09;83.54
80308;BME280;69616;43.522;1.348;2023-12-20T10:41:30;101255.91;;;9.09;82.99
80308;BME280;69616;43.522;1.348;2023-12-20T10:43:59;101247.19;;;9.11;83.48
80308;BME280;69616;43.522;1.348;2023-12-20T10:46:26;101245.53;;;9.16;83.06
80308;BME280;69616;43.522;1.348;2023-12-20T10:48:53;101235.16;;;9.26;82.53
80308;BME280;69616;43.522;1.348;2023-12-20T10:51:20;101239.56;;;9.27;81.82
80308;BME280;69616;43.522;1.348;2023-12-20T10:53:50;101233.63;;;9.39;81.34
80308;BME280;69616;43.522;1.348;2023-12-20T10:56:19;101226.72;;;9.45;81.66
80308;BME280;69616;43.522;1.348;2023-12-20T10:58:46;101235.59;;;9.52;81.33
80308;BME280;69616;43.522;1.348;2023-12-20T11:01:13;101233.09;;;9.60;81.12
80308;BME280;69616;43.522;1.348;2023-12-20T11:03:43;101228.78;;;9.65;80.96
80308;BME280;69616;43.522;1.348;2023-12-20T11:08:51;101230.06;;;9.90;80.16
80308;BME280;69616;43.522;1.348;2023-12-20T11:11:40;101224.91;;;10.00;79.72
80308;BME280;69616;43.522;1.348;2023-12-20T11:14:22;101227.69;;;10.11;80.15
80308;BME280;69616;43.522;1.348;2023-12-20T11:16:48;101218.94;;;10.12;79.87
80308;BME280;69616;43.522;1.348;2023-12-20T11:19:14;101218.00;;;10.07;80.11
80308;BME280;69616;43.522;1.348;2023-12-20T11:21:40;101218.72;;;9.96;78.48
80308;BME280;69616;43.522;1.348;2023-12-20T11:24:06;101227.31;;;9.84;79.35
80308;BME280;69616;43.522;1.348;2023-12-20T11:26:31;101214.88;;;9.72;78.92
80308;BME280;69616;43.522;1.348;2023-12-20T11:29:34;101212.28;;;9.75;77.97
80308;BME280;69616;43.522;1.348;2023-12-20T11:32:02;101201.97;;;9.91;78.09
80308;BME280;69616;43.522;1.348;2023-12-20T11:34:29;101203.97;;;10.09;78.21
80308;BME280;69616;43.522;1.348;2023-12-20T11:37:00;101201.59;;;10.29;77.05
80308;BME280;69616;43.522;1.348;2023-12-20T11:39:28;101201.78;;;10.40;76.28
80308;BME280;69616;43.522;1.348;2023-12-20T11:41:56;101204.53;;;10.51;76.29
80308;BME280;69616;43.522;1.348;2023-12-20T11:44:23;101202.91;;;10.66;74.59
80308;BME280;69616;43.522;1.348;2023-12-20T11:46:50;101191.50;;;10.65;74.70
80308;BME280;69616;43.522;1.348;2023-12-20T11:49:15;101187.00;;;10.55;73.38
80308;BME280;69616;43.522;1.348;2023-12-20T11:51:41;101197.47;;;10.48;74.11
80308;BME280;69616;43.522;1.348;2023-12-20T11:54:07;101184.41;;;10.59;74.10
80308;BME280;69616;43.522;1.348;2023-12-20T11:56:35;101187.16;;;10.72;73.38
80308;BME280;69616;43.522;1.348;2023-12-20T11:59:01;101181.16;;;10.85;72.69
80308;BME280;69616;43.522;1.348;2023-12-20T12:01:26;101168.13;;;10.98;72.38
80308;BME280;69616;43.522;1.348;2023-12-20T12:04:05;101167.31;;;11.08;70.36
80308;BME280;69616;43.522;1.348;2023-12-20T12:06:31;101174.47;;;11.22;68.78
80308;BME280;69616;43.522;1.348;2023-12-20T12:08:57;101166.56;;;11.22;68.88
80308;BME280;69616;43.522;1.348;2023-12-20T12:11:22;101167.41;;;11.20;67.95
80308;BME280;69616;43.522;1.348;2023-12-20T12:13:48;101169.19;;;11.22;67.58
80308;BME280;69616;43.522;1.348;2023-12-20T12:16:20;101173.53;;;11.19;67.54
80308;BME280;69616;43.522;1.348;2023-12-20T12:18:46;101171.81;;;11.22;66.85
80308;BME280;69616;43.522;1.348;2023-12-20T12:21:21;101174.47;;;11.26;65.79
80308;BME280;69616;43.522;1.348;2023-12-20T12:23:46;101172.72;;;11.28;65.17
80308;BME280;69616;43.522;1.348;2023-12-20T12:26:12;101181.53;;;11.29;64.77
80308;BME280;69616;43.522;1.348;2023-12-20T12:28:40;101178.00;;;11.27;65.24
80308;BME280;69616;43.522;1.348;2023-12-20T12:31:05;101182.41;;;11.28;66.09
80308;BME280;69616;43.522;1.348;2023-12-20T12:33:31;101186.00;;;11.34;66.15
80308;BME280;69616;43.522;1.348;2023-12-20T12:35:56;101182.50;;;11.43;65.64
80308;BME280;69616;43.522;1.348;2023-12-20T12:38:22;101193.13;;;11.49;64.26
80308;BME280;69616;43.522;1.348;2023-12-20T12:40:49;101186.97;;;11.51;64.07
80308;BME280;69616;43.522;1.348;2023-12-20T12:43:15;101193.19;;;11.60;64.41
80308;BME280;69616;43.522;1.348;2023-12-20T12:45:40;101196.75;;;11.69;63.40
80308;BME280;69616;43.522;1.348;2023-12-20T12:48:06;101202.06;;;11.75;63.31
80308;BME280;69616;43.522;1.348;2023-12-20T12:50:32;101197.69;;;11.80;62.58
80308;BME280;69616;43.522;1.348;2023-12-20T12:52:57;101192.41;;;11.75;61.13
80308;BME280;69616;43.522;1.348;2023-12-20T12:55:23;101197.59;;;11.66;59.17
80308;BME280;69616;43.522;1.348;2023-12-20T12:57:48;101201.13;;;11.65;59.94